YKNP weather

Kununoppin Airport
Western Australia, Australia

Public forecast

Using degrees Celsius for public forecast. Weather courtesy of forecast.io.

METAR (pilot weather report)

Closest report is RAAF Base Pearce, 101.8 nm (188.5 km) WSW. Retrieved 2019/04/22 21:30 UTC (5 minutes ago):

YPEA 222130Z 36003KT CAVOK 10/06 Q1023

TAF (pilot weather forecast)

Closest forecast is RAAF Base Pearce, 101.8 nm (188.5 km) WSW. Retrieved 2019/04/22 18:00 UTC (4 hours ago):

TAF YPEA 221629Z 2218/2312 11003KT CAVOK FM230100 07008KT CAVOK FM230800 21008KT CAVOK